createdAt,value
2023-04-23T00:01:14.948Z,96311.66
2023-04-23T00:03:43.002Z,96312.28
2023-04-23T00:06:11.250Z,96303.75
2023-04-23T00:08:41.756Z,96313.28
2023-04-23T00:11:09.402Z,96306.59
2023-04-23T00:13:36.484Z,96309.38
2023-04-23T00:16:03.555Z,96296.63
2023-04-23T00:18:30.415Z,96295.63
2023-04-23T00:20:57.631Z,96293.22
2023-04-23T00:23:24.358Z,96304.56
2023-04-23T00:25:51.127Z,96303.31
2023-04-23T00:28:19.167Z,96305.75
2023-04-23T00:30:47.038Z,96306.31
2023-04-23T00:33:13.718Z,96319.06
2023-04-23T00:35:40.762Z,96327.56
2023-04-23T00:38:07.702Z,96308.31
2023-04-23T00:40:34.375Z,96306.06
2023-04-23T00:43:01.289Z,96317.00
2023-04-23T00:45:28.178Z,96312.94
2023-04-23T00:47:56.464Z,96308.84
2023-04-23T00:50:23.430Z,96326.34
2023-04-23T00:52:50.384Z,96305.88
2023-04-23T00:55:17.374Z,96310.50
2023-04-23T00:57:44.184Z,96315.38
2023-04-23T01:00:14.094Z,96303.56
2023-04-23T01:02:42.710Z,96316.94
2023-04-23T01:05:11.505Z,96327.06
2023-04-23T01:07:38.623Z,96320.19
2023-04-23T01:10:06.089Z,96317.53
2023-04-23T01:12:33.745Z,96312.69
2023-04-23T01:15:00.800Z,96309.25
2023-04-23T01:17:27.741Z,96301.94
2023-04-23T01:19:54.657Z,96306.00
2023-04-23T01:22:21.831Z,96299.91
2023-04-23T01:24:49.148Z,96297.25
2023-04-23T01:27:18.627Z,96303.97
2023-04-23T01:29:45.589Z,96311.59
2023-04-23T01:32:12.505Z,96309.91
2023-04-23T01:34:40.277Z,96302.84
2023-04-23T01:37:07.686Z,96311.75
2023-04-23T01:39:34.542Z,96310.31
2023-04-23T01:42:01.539Z,96306.25
2023-04-23T01:44:28.689Z,96319.63
2023-04-23T01:46:58.706Z,96306.63
2023-04-23T01:49:25.650Z,96314.34
2023-04-23T01:51:52.441Z,96307.00
2023-04-23T01:54:19.694Z,96330.53
2023-04-23T01:56:46.722Z,96319.78
2023-04-23T01:59:13.694Z,96307.81
2023-04-23T02:01:45.692Z,96318.50
2023-04-23T02:04:14.063Z,96318.66
2023-04-23T02:06:42.732Z,96316.78
2023-04-23T02:09:09.931Z,96308.09
2023-04-23T02:11:36.641Z,96320.25
2023-04-23T02:14:03.900Z,96336.63
2023-04-23T02:16:31.343Z,96324.66
2023-04-23T02:18:58.374Z,96328.28
2023-04-23T02:21:26.381Z,96320.72
2023-04-23T02:23:53.481Z,96318.06
2023-04-23T02:26:20.490Z,96326.31
2023-04-23T02:28:50.288Z,96322.25
2023-04-23T02:31:18.075Z,96328.94
2023-04-23T02:33:47.266Z,96334.59
2023-04-23T02:36:14.175Z,96329.69
2023-04-23T02:38:42.661Z,96344.34
2023-04-23T02:41:09.521Z,96337.84
2023-04-23T02:43:36.644Z,96322.81
2023-04-23T02:46:08.513Z,96337.38
2023-04-23T02:48:41.018Z,96326.19
2023-04-23T02:51:10.858Z,96330.06
2023-04-23T02:53:37.763Z,96330.59
2023-04-23T02:56:04.927Z,96334.59
2023-04-23T02:58:34.977Z,96345.97
2023-04-23T03:01:02.271Z,96335.97
2023-04-23T03:03:32.495Z,96331.09
2023-04-23T03:06:00.994Z,96328.22
2023-04-23T03:08:28.580Z,96326.41
2023-04-23T03:10:57.695Z,96333.47
2023-04-23T03:13:25.312Z,96331.84
2023-04-23T03:15:53.362Z,96311.97
2023-04-23T03:18:20.835Z,96316.97
2023-04-23T03:20:49.413Z,96315.91
2023-04-23T03:23:16.914Z,96321.25
2023-04-23T03:25:43.925Z,96317.34
2023-04-23T03:28:10.848Z,96308.94
2023-04-23T03:30:38.242Z,96314.31
2023-04-23T03:33:05.260Z,96323.72
2023-04-23T03:35:32.320Z,96306.84
2023-04-23T03:37:59.339Z,96330.09
2023-04-23T03:40:26.352Z,96312.91
2023-04-23T03:42:53.361Z,96310.59
2023-04-23T03:45:23.416Z,96313.09
2023-04-23T03:47:50.275Z,96321.06
2023-04-23T03:50:19.609Z,96313.16
2023-04-23T03:52:46.530Z,96314.25
2023-04-23T03:55:13.387Z,96297.59
2023-04-23T03:57:40.204Z,96315.47
2023-04-23T04:00:12.018Z,96310.41
2023-04-23T04:02:39.809Z,96314.63
2023-04-23T04:05:07.843Z,96314.81
2023-04-23T04:07:35.834Z,96315.63
2023-04-23T04:10:03.437Z,96325.69
2023-04-23T04:12:30.497Z,96309.84
2023-04-23T04:15:00.158Z,96311.09
2023-04-23T04:17:27.363Z,96315.47
2023-04-23T04:19:54.477Z,96305.75
2023-04-23T04:22:21.409Z,96312.84
2023-04-23T04:24:52.311Z,96312.03
2023-04-23T04:27:22.416Z,96317.16
2023-04-23T04:29:52.182Z,96331.72
2023-04-23T04:32:22.563Z,96319.84
2023-04-23T04:34:50.307Z,96309.97
2023-04-23T04:37:22.614Z,96308.97
2023-04-23T04:39:49.716Z,96313.88
2023-04-23T04:42:16.885Z,96311.91
2023-04-23T04:44:44.070Z,96305.66
2023-04-23T04:47:11.470Z,96311.16
2023-04-23T04:49:38.580Z,96315.03
2023-04-23T04:52:05.880Z,96307.78
2023-04-23T04:54:33.028Z,96317.00
2023-04-23T04:57:00.119Z,96319.97
2023-04-23T04:59:27.240Z,96314.06
2023-04-23T05:01:54.530Z,96302.69
2023-04-23T05:04:21.716Z,96302.31
2023-04-23T05:06:48.760Z,96309.75
2023-04-23T05:09:15.756Z,96310.09
2023-04-23T05:11:43.294Z,96302.06
2023-04-23T05:14:10.533Z,96297.81
2023-04-23T05:16:38.313Z,96300.97
2023-04-23T05:19:05.313Z,96299.63
2023-04-23T05:21:32.255Z,96302.31
2023-04-23T05:24:03.531Z,96311.16
2023-04-23T05:26:30.488Z,96314.13
2023-04-23T05:28:59.968Z,96296.34
2023-04-23T05:31:28.829Z,96312.66
2023-04-23T05:33:56.754Z,96300.22
2023-04-23T05:36:24.266Z,96320.84
2023-04-23T05:38:51.298Z,96300.41
2023-04-23T05:41:21.258Z,96311.81
2023-04-23T05:43:48.412Z,96308.63
2023-04-23T05:46:15.487Z,96316.16
2023-04-23T05:48:42.614Z,96310.06
2023-04-23T05:51:10.739Z,96315.56
2023-04-23T05:53:38.115Z,96306.66
2023-04-23T05:56:06.898Z,96306.66
2023-04-23T05:58:35.492Z,96305.44
2023-04-23T06:01:05.275Z,96306.66
2023-04-23T06:03:32.866Z,96321.44
2023-04-23T06:06:00.265Z,96325.50
2023-04-23T06:08:27.491Z,96311.47
2023-04-23T06:10:56.689Z,96311.41
2023-04-23T06:13:28.405Z,96310.97
2023-04-23T06:15:55.523Z,96306.09
2023-04-23T06:18:22.723Z,96305.19
2023-04-23T06:20:52.845Z,96313.72
2023-04-23T06:23:22.684Z,96315.97
2023-04-23T06:25:49.901Z,96317.78
2023-04-23T06:28:17.648Z,96318.00
2023-04-23T06:30:44.747Z,96327.28
2023-04-23T06:33:23.092Z,96334.41
2023-04-23T06:35:53.042Z,96327.94
2023-04-23T06:38:23.360Z,96329.34
2023-04-23T06:40:50.632Z,96330.59
2023-04-23T06:43:19.422Z,96333.84
2023-04-23T06:45:49.447Z,96317.38
2023-04-23T06:48:22.859Z,96311.94
2023-04-23T06:50:50.287Z,96314.34
2023-04-23T06:53:20.524Z,96330.16
2023-04-23T06:55:50.498Z,96309.00
2023-04-23T06:58:24.258Z,96324.34
2023-04-23T07:00:51.710Z,96322.25
2023-04-23T07:03:22.006Z,96302.56
2023-04-23T07:05:49.512Z,96302.34
2023-04-23T07:08:20.448Z,96306.41
2023-04-23T07:10:47.700Z,96331.41
2023-04-23T07:13:15.432Z,96306.75
2023-04-23T07:15:43.091Z,96313.72
2023-04-23T07:18:10.351Z,96306.63
2023-04-23T07:20:45.445Z,96308.25
2023-04-23T07:23:13.423Z,96312.69
2023-04-23T07:25:40.679Z,96308.94
2023-04-23T07:28:12.282Z,96313.81
2023-04-23T07:30:40.262Z,96322.31
2023-04-23T07:33:08.997Z,96315.34
2023-04-23T07:35:36.185Z,96313.25
2023-04-23T07:38:10.311Z,96307.94
2023-04-23T07:40:43.687Z,96301.28
2023-04-23T07:43:18.467Z,96306.25
2023-04-23T07:45:46.687Z,96294.03
2023-04-23T07:48:19.730Z,96288.91
2023-04-23T07:50:50.138Z,96288.72
2023-04-23T07:53:24.735Z,96287.66
2023-04-23T07:55:55.277Z,96288.50
2023-04-23T07:58:30.323Z,96276.19
2023-04-23T08:03:52.440Z,96277.41
2023-04-23T08:09:09.009Z,96290.09
2023-04-23T08:11:43.533Z,96266.88
2023-04-23T08:14:12.654Z,96266.63
2023-04-23T08:16:49.357Z,96271.31
2023-04-23T08:19:20.944Z,96263.03
2023-04-23T08:24:37.781Z,96261.06
2023-04-23T08:32:41.663Z,96255.59
2023-04-23T08:35:16.487Z,96251.59
2023-04-23T08:37:51.418Z,96255.75
2023-04-23T08:40:26.500Z,96262.09
2023-04-23T08:43:15.231Z,96265.44
2023-04-23T08:51:41.581Z,96267.47
2023-04-23T09:19:27.852Z,96269.59
2023-04-23T09:21:54.689Z,96256.84
2023-04-23T09:24:25.131Z,96274.28
2023-04-23T09:26:52.921Z,96253.91
2023-04-23T09:29:23.299Z,96251.78
2023-04-23T09:31:53.201Z,96251.03
2023-04-23T09:34:23.385Z,96241.25
2023-04-23T09:36:51.789Z,96233.72
2023-04-23T09:39:22.170Z,96237.22
2023-04-23T09:41:48.886Z,96227.81
2023-04-23T09:44:22.469Z,96224.28
2023-04-23T09:46:50.806Z,96224.84
2023-04-23T09:49:30.974Z,96219.81
2023-04-23T09:52:10.637Z,96219.38
2023-04-23T09:54:38.808Z,96220.50
2023-04-23T09:59:57.447Z,96225.63
2023-04-23T10:02:51.008Z,96221.84
2023-04-23T10:05:27.606Z,96224.81
2023-04-23T10:08:09.607Z,96221.81
2023-04-23T10:11:05.966Z,96212.19
2023-04-23T10:13:41.908Z,96209.88
2023-04-23T10:16:42.021Z,96207.50
2023-04-23T10:25:32.714Z,96199.25
2023-04-23T10:36:09.863Z,96209.41
2023-04-23T10:38:42.934Z,96202.72
2023-04-23T10:41:22.425Z,96195.78
2023-04-23T10:43:48.990Z,96206.19
2023-04-23T10:46:49.536Z,96198.91
2023-04-23T10:52:20.819Z,96178.44
2023-04-23T10:57:37.136Z,96188.56
2023-04-23T11:00:06.688Z,96178.78
2023-04-23T11:02:45.186Z,96165.34
2023-04-23T11:39:36.273Z,96140.06
2023-04-23T11:42:05.048Z,96104.75
2023-04-23T11:53:00.382Z,96116.69
2023-04-23T11:55:38.024Z,96124.25
2023-04-23T11:58:08.742Z,96131.50
2023-04-23T12:03:22.975Z,96124.75
2023-04-23T12:05:51.250Z,96119.59
2023-04-23T12:16:56.354Z,96109.88
2023-04-23T12:19:35.306Z,96099.44
2023-04-23T12:27:36.149Z,96081.88
2023-04-23T17:04:27.099Z,95754.66
2023-04-23T17:06:56.890Z,95757.22
2023-04-23T17:09:26.984Z,95768.94
2023-04-23T17:11:53.956Z,95795.81
2023-04-23T17:14:20.916Z,95815.44
2023-04-23T17:16:47.685Z,95843.91
2023-04-23T17:19:14.277Z,95850.94
2023-04-23T17:21:41.038Z,95849.09
2023-04-23T17:24:07.659Z,95844.69
2023-04-23T17:26:34.278Z,95832.19
2023-04-23T17:29:00.851Z,95818.72
2023-04-23T17:31:27.540Z,95823.84
2023-04-23T17:33:55.500Z,95814.50
2023-04-23T17:36:22.195Z,95807.28
2023-04-23T17:38:48.795Z,95792.53
2023-04-23T17:41:16.967Z,95795.53
2023-04-23T17:43:43.625Z,95793.94
2023-04-23T17:46:10.277Z,95787.97
2023-04-23T17:48:36.910Z,95782.69
2023-04-23T17:51:03.636Z,95785.13
2023-04-23T17:53:30.890Z,95783.31
2023-04-23T17:56:02.598Z,95786.31
2023-04-23T17:58:30.693Z,95783.06
2023-04-23T18:00:57.562Z,95783.28
2023-04-23T18:03:24.670Z,95789.53
2023-04-23T18:05:51.515Z,95767.28
2023-04-23T18:08:19.571Z,95772.47
2023-04-23T18:10:46.288Z,95758.34
2023-04-23T18:13:13.845Z,95772.69
2023-04-23T18:15:42.106Z,95768.66
2023-04-23T18:18:09.266Z,95766.03
2023-04-23T18:20:38.617Z,95766.25
2023-04-23T18:23:06.791Z,95766.84
2023-04-23T18:25:33.777Z,95768.44
2023-04-23T18:28:00.444Z,95770.50
2023-04-23T18:30:27.056Z,95752.31
2023-04-23T18:33:24.580Z,95758.38
2023-04-23T18:35:55.500Z,95760.81
2023-04-23T18:38:25.553Z,95748.28
2023-04-23T18:40:52.230Z,95751.13
2023-04-23T18:43:18.905Z,95745.31
2023-04-23T18:45:45.497Z,95754.78
2023-04-23T18:48:34.112Z,95750.69
2023-04-23T18:51:05.889Z,95741.78
2023-04-23T18:53:32.802Z,95749.88
2023-04-23T18:55:59.446Z,95749.66
2023-04-23T18:58:26.120Z,95752.53
2023-04-23T19:00:52.685Z,95749.88
2023-04-23T19:03:26.873Z,95732.44
2023-04-23T19:05:54.043Z,95732.44
2023-04-23T19:08:21.342Z,95732.00
2023-04-23T19:10:48.040Z,95716.25
2023-04-23T19:13:14.708Z,95719.44
2023-04-23T19:15:41.545Z,95730.72
2023-04-23T19:18:08.386Z,95723.84
2023-04-23T19:20:35.069Z,95725.00
2023-04-23T19:23:03.901Z,95716.94
2023-04-23T19:25:30.793Z,95725.06
2023-04-23T19:27:57.503Z,95719.00
2023-04-23T19:30:24.153Z,95715.34
2023-04-23T19:32:50.893Z,95714.22
2023-04-23T19:35:17.815Z,95710.28
2023-04-23T19:37:44.563Z,95713.28
2023-04-23T19:40:12.049Z,95716.06
2023-04-23T19:42:39.338Z,95705.59
2023-04-23T19:45:06.397Z,95723.97
2023-04-23T19:47:34.965Z,95716.41
2023-04-23T19:50:01.718Z,95720.06
2023-04-23T19:52:29.131Z,95729.75
2023-04-23T19:54:55.941Z,95713.41
2023-04-23T19:57:22.847Z,95727.28
2023-04-23T19:59:50.238Z,95729.09
2023-04-23T20:02:17.239Z,95719.88
2023-04-23T20:04:44.178Z,95724.31
2023-04-23T20:07:11.186Z,95728.34
2023-04-23T20:09:37.878Z,95738.47
2023-04-23T20:12:05.114Z,95749.81
2023-04-23T20:14:32.020Z,95724.31
2023-04-23T20:16:58.969Z,95720.28
2023-04-23T20:19:26.306Z,95724.25
2023-04-23T20:21:53.307Z,95722.66
2023-04-23T20:24:22.858Z,95725.88
2023-04-23T20:26:49.659Z,95725.66
2023-04-23T20:29:16.396Z,95719.38
2023-04-23T20:31:43.401Z,95743.41
2023-04-23T20:34:11.163Z,95736.91
2023-04-23T20:36:38.977Z,95730.19
2023-04-23T20:39:05.789Z,95719.63
2023-04-23T20:41:36.624Z,95723.66
2023-04-23T20:44:05.323Z,95722.06
2023-04-23T20:46:32.847Z,95722.84
2023-04-23T20:49:03.978Z,95720.22
2023-04-23T20:51:34.732Z,95744.28
2023-04-23T20:54:02.166Z,95725.50
2023-04-23T20:56:29.495Z,95733.41
2023-04-23T20:58:57.809Z,95715.94
2023-04-23T21:01:25.407Z,95706.09
2023-04-23T21:03:53.990Z,95695.91
2023-04-23T21:06:21.707Z,95690.84
2023-04-23T21:08:48.486Z,95687.25
2023-04-23T21:11:18.295Z,95682.81
2023-04-23T21:13:46.157Z,95689.84
2023-04-23T21:16:13.334Z,95684.56
2023-04-23T21:18:41.650Z,95681.53
2023-04-23T21:21:08.513Z,95683.25
2023-04-23T21:23:35.828Z,95684.97
2023-04-23T21:26:03.392Z,95683.38
2023-04-23T21:28:33.827Z,95690.09
2023-04-23T21:31:11.558Z,95693.97
2023-04-23T21:33:40.831Z,95693.03
2023-04-23T21:36:08.069Z,95684.22
2023-04-23T21:38:35.144Z,95703.13
2023-04-23T21:41:03.254Z,95693.31
2023-04-23T21:43:35.685Z,95709.47
2023-04-23T21:46:02.666Z,95694.81
2023-04-23T21:48:32.280Z,95692.81
2023-04-23T21:50:59.376Z,95698.06
2023-04-23T21:53:28.594Z,95683.34
2023-04-23T21:55:57.758Z,95701.13
2023-04-23T21:58:25.053Z,95680.91
2023-04-23T22:00:55.719Z,95692.34
2023-04-23T22:03:31.335Z,95679.03
2023-04-23T22:06:08.792Z,95704.41
2023-04-23T22:08:43.757Z,95688.69
2023-04-23T22:11:17.391Z,95686.28
2023-04-23T22:13:51.197Z,95679.63
2023-04-23T22:16:28.262Z,95688.97
2023-04-23T22:18:57.137Z,95697.41
2023-04-23T22:21:24.367Z,95691.91
2023-04-23T22:23:51.935Z,95683.78
2023-04-23T22:26:21.740Z,95698.38
2023-04-23T22:28:52.190Z,95707.03
2023-04-23T22:31:24.470Z,95697.38
2023-04-23T22:33:57.092Z,95704.53
2023-04-23T22:36:31.719Z,95700.09
2023-04-23T22:39:10.021Z,95703.19
2023-04-23T22:41:46.165Z,95719.97
2023-04-23T22:44:19.203Z,95700.38
2023-04-23T22:46:46.561Z,95701.41
2023-04-23T22:49:17.117Z,95706.03
2023-04-23T22:51:55.407Z,95702.59
2023-04-23T22:54:23.059Z,95727.66
2023-04-23T22:59:38.941Z,95706.72
2023-04-23T23:02:10.812Z,95718.66
2023-04-23T23:04:45.400Z,95704.38
2023-04-23T23:07:19.477Z,95701.94
2023-04-23T23:09:47.474Z,95715.69
2023-04-23T23:14:59.712Z,95716.94
2023-04-23T23:20:52.147Z,95710.06
2023-04-23T23:34:40.194Z,95715.50
2023-04-23T23:45:54.774Z,95696.03
2023-04-23T23:51:10.886Z,95684.94
